Impacts TAF Board INFO
FOR SITUATIONAL AWARENESS. NOT TO BE USED FOR FLIGHT PLANNING PURPOSES.
IDs:

KORD - Chicago/O'Hare Intl, IL, US

Issued at 0859 UTC 18 Jan 2018
Updated at 0953 UTC 18 Jan 2018
Potential Impact None Slight Moderate High
Time0851Z 18/10Z 18/11Z 18/12Z 18/13Z 18/14Z 18/15Z 18/16Z 18/17Z 18/18Z 18/19Z 18/20Z 18/21Z 18/22Z>>
Type OBS PRVL PRVL PRVL PRVL PRVL PRVL PRVL PRVL PRVL PRVL PRVL PRVL PRVL
VIS 10 >6 >6 >6 >6 >6 >6 >6 >6 >6 >6 >6 >6 >6
CIG -- -- -- -- -- -- -- -- -- -- -- -- -- --
Cover CLR FEW FEW FEW FEW FEW FEW FEW FEW FEW FEW FEW FEW FEW
FltCat VFR VFR VFR VFR VFR VFR VFR VFR VFR VFR VFR VFR VFR VFR
WX -- -- -- -- -- -- -- -- -- -- -- -- -- --
WDir 240 230 230 230 230 230 230 230 230 230 230 230 230 230
WSpd 11 17 17 17 17 17 17 17 17 17 17 17 17 17
WGst 19 24 24 24 24 24 24 24 24 24 24 24 24 24

Raw TAF
KORD 180859Z 1809/1912 23017G24KT P6SM FEW250
  FM190000 23011KT P6SM SKC


Raw METAR
KORD 180851Z 24011G19KT 10SM CLR M08/M13 A3015 RMK AO2 SLP223 T10831128 56012
KORD 180751Z 24016G21KT 10SM CLR M08/M13 A3017 RMK AO2 SLP228 T10831128
KORD 180651Z 24015KT 10SM CLR M08/M13 A3017 RMK AO2 SLP228 T10831128

METAR Board
Radar Display
Forecast Discussion

FOR SITUATIONAL AWARENESS. NOT TO BE USED FOR FLIGHT PLANNING PURPOSES.